Time;durP1;ratioP1;P1;durP2;ratioP2;P2;SDS_P1;SDS_P2;PMS_P1;PMS_P2;Temp;Humidity;BMP_temperature;BMP_pressure;BME280_temperature;BME280_humidity;BME280_pressure;Samples;Min_cycle;Max_cycle;Signal;HPM_P1;HPM_P2
2021/12/04 00:09:18;;;;;;;21.08;8.45;;;;;;;1.30;91.55;99356.13;719391;1202;113747;-77
2021/12/04 00:24:22;;;;;;;17.65;8.60;;;;;;;1.27;90.64;99331.31;715040;1176;113833;-76
2021/12/04 00:54:46;;;;;;;20.30;9.03;;;;;;;1.40;88.73;99331.35;714507;1202;113904;-76
2021/12/04 01:09:48;;;;;;;18.53;8.93;;;;;;;1.41;87.85;99327.00;715160;1176;113871;-77
2021/12/04 01:24:50;;;;;;;15.67;7.47;;;;;;;1.39;87.66;99308.20;714353;1200;114240;-75
2021/12/04 01:39:52;;;;;;;21.80;8.80;;;;;;;1.47;86.90;99303.34;714422;1189;113623;-76
2021/12/04 01:54:56;;;;;;;17.45;7.90;;;;;;;1.47;86.64;99293.00;714240;1201;115180;-76
2021/12/04 02:09:58;;;;;;;18.35;9.23;;;;;;;1.44;85.88;99260.44;714143;1200;113835;-76
2021/12/04 02:25:00;;;;;;;19.63;9.88;;;;;;;1.41;85.03;99258.06;714206;1200;113484;-77
2021/12/04 02:40:04;;;;;;;22.15;10.65;;;;;;;1.47;84.59;99251.65;714216;1200;114352;-76
2021/12/04 02:55:07;;;;;;;21.50;10.00;;;;;;;1.44;84.70;99226.83;714391;1202;114245;-76
2021/12/04 03:10:09;;;;;;;18.60;10.03;;;;;;;1.38;84.13;99196.22;714283;1202;114360;-75
2021/12/04 03:25:15;;;;;;;20.10;11.30;;;;;;;1.40;84.25;99189.20;714037;1199;114610;-76
2021/12/04 03:55:25;;;;;;;21.88;10.13;;;;;;;1.44;84.68;99156.20;714208;1192;114551;-75
2021/12/04 04:10:27;;;;;;;25.03;11.08;;;;;;;1.23;87.60;99154.16;713924;1200;114385;-76
2021/12/04 04:25:29;;;;;;;24.23;12.63;;;;;;;0.93;91.55;99137.18;714047;1203;114172;-76
2021/12/04 05:11:21;;;;;;;23.13;11.90;;;;;;;0.89;97.32;99124.59;714326;1200;114773;-75
2021/12/04 05:26:26;;;;;;;23.80;11.17;;;;;;;1.04;97.51;99115.80;714371;1177;114264;-76
2021/12/04 05:41:29;;;;;;;24.50;12.23;;;;;;;1.03;98.39;99103.84;714138;1202;113868;-72
2021/12/04 05:56:33;;;;;;;24.30;11.60;;;;;;;1.13;98.64;99112.59;714209;1200;115164;-72
2021/12/04 06:11:36;;;;;;;19.13;10.43;;;;;;;1.26;98.98;99112.59;714443;1196;114260;-73
2021/12/04 06:26:39;;;;;;;22.63;10.87;;;;;;;1.27;98.59;99109.09;714808;1202;113914;-71
2021/12/04 06:41:41;;;;;;;19.05;10.88;;;;;;;1.44;98.14;99120.02;714388;1176;114315;-73
2021/12/04 06:56:45;;;;;;;21.95;11.38;;;;;;;1.53;97.39;99127.16;714020;1202;115081;-72
2021/12/04 07:11:48;;;;;;;54.53;33.23;;;;;;;1.67;97.89;99128.78;714005;1200;113229;-72
2021/12/04 07:26:50;;;;;;;35.10;21.90;;;;;;;1.80;97.67;99136.52;714066;1202;114103;-71
2021/12/04 07:41:54;;;;;;;26.45;13.40;;;;;;;1.81;97.28;99122.66;714309;1203;114018;-72
2021/12/04 07:56:59;;;;;;;37.98;16.80;;;;;;;1.87;97.79;99117.03;714410;1202;114461;-71
2021/12/04 08:12:01;;;;;;;22.68;13.23;;;;;;;1.88;97.38;99115.29;714612;1202;114476;-71
2021/12/04 08:27:03;;;;;;;32.33;18.50;;;;;;;1.95;97.66;99113.91;715657;1200;114969;-71
2021/12/04 08:42:06;;;;;;;25.90;13.47;;;;;;;1.94;98.99;99127.77;714407;1203;113679;-72
2021/12/04 08:57:08;;;;;;;30.47;16.37;;;;;;;2.00;99.33;99132.52;715084;1200;114716;-71
2021/12/04 09:12:11;;;;;;;31.00;15.50;;;;;;;2.13;99.91;99132.48;715214;1200;113809;-70
2021/12/04 09:27:43;;;;;;;30.45;17.50;;;;;;;2.09;100.00;99129.28;716371;1206;113697;-72
2021/12/04 10:13:36;;;;;;;36.58;16.70;;;;;;;2.12;100.00;99110.13;716043;1200;114144;-75
2021/12/04 10:44:15;;;;;;;59.18;22.50;;;;;;;2.14;100.00;99111.66;715319;1199;114059;-74
2021/12/04 11:45:25;;;;;;;35.23;17.77;;;;;;;2.31;100.00;99083.76;714883;1200;114231;-72
2021/12/04 12:00:33;;;;;;;36.58;17.95;;;;;;;2.31;100.00;99084.57;715054;1205;114239;-72
2021/12/04 12:15:37;;;;;;;64.40;25.70;;;;;;;2.43;100.00;99082.84;715370;1200;113773;-72
2021/12/04 12:46:06;;;;;;;50.55;26.50;;;;;;;2.58;100.00;99082.66;715196;1202;114027;-73
2021/12/04 13:16:47;;;;;;;40.63;22.28;;;;;;;2.61;100.00;99074.66;715148;1200;115028;-73
2021/12/04 13:31:57;;;;;;;57.50;24.10;;;;;;;2.66;100.00;99088.91;715967;1177;113815;-73
2021/12/04 13:47:05;;;;;;;45.43;22.63;;;;;;;2.72;100.00;99074.69;715849;1180;113789;-76
2021/12/04 14:02:20;;;;;;;48.53;23.90;;;;;;;2.62;100.00;99087.48;715895;1200;114353;-73
2021/12/04 14:17:23;;;;;;;91.30;40.40;;;;;;;2.62;100.00;99076.31;715604;1191;113920;-72
2021/12/04 14:32:28;;;;;;;104.67;43.43;;;;;;;2.53;100.00;99090.75;716376;1200;115585;-72
2021/12/04 14:47:37;;;;;;;63.88;28.83;;;;;;;2.56;100.00;99103.49;715255;1202;114513;-76
2021/12/04 15:02:39;;;;;;;49.27;23.97;;;;;;;2.61;100.00;99111.75;716075;1200;114234;-75
2021/12/04 15:17:53;;;;;;;56.60;26.30;;;;;;;2.56;100.00;99120.77;716528;1202;115261;-72
2021/12/04 15:32:55;;;;;;;103.87;38.33;;;;;;;2.71;100.00;99117.06;715448;1200;113828;-75
2021/12/04 16:03:25;;;;;;;207.00;83.10;;;;;;;2.82;100.00;99132.65;716757;1200;114815;-77
2021/12/04 16:18:29;;;;;;;121.15;41.78;;;;;;;2.82;100.00;99150.78;716937;1200;114594;-78
2021/12/04 16:33:39;;;;;;;91.53;35.88;;;;;;;2.75;100.00;99183.23;718433;1200;114628;-78
2021/12/04 16:48:55;;;;;;;85.83;32.97;;;;;;;2.72;100.00;99196.42;715498;1182;113874;-80
2021/12/04 17:04:06;;;;;;;66.93;29.40;;;;;;;2.70;100.00;99192.28;715311;1201;114666;-77
2021/12/04 17:19:09;;;;;;;115.65;38.93;;;;;;;2.68;100.00;99184.64;715927;1179;115650;-77
2021/12/04 17:34:14;;;;;;;92.53;38.13;;;;;;;2.53;100.00;99180.56;715867;1202;114072;-75
2021/12/04 17:49:23;;;;;;;96.58;40.70;;;;;;;2.40;100.00;99175.42;715321;1201;114484;-75
2021/12/04 18:04:31;;;;;;;77.63;32.10;;;;;;;2.41;100.00;99196.02;715288;1178;113704;-77
2021/12/04 18:19:35;;;;;;;150.28;44.10;;;;;;;2.35;100.00;99204.25;718308;1200;113788;-78
2021/12/04 18:34:38;;;;;;;150.90;44.87;;;;;;;2.35;100.00;99201.66;715695;1177;114074;-71
2021/12/04 18:49:40;;;;;;;104.68;38.53;;;;;;;2.29;100.00;99220.20;715163;1177;114067;-75
2021/12/04 19:04:43;;;;;;;94.73;37.17;;;;;;;2.23;100.00;99202.51;715197;1200;113995;-74
2021/12/04 19:19:46;;;;;;;118.65;37.00;;;;;;;2.31;100.00;99213.17;715631;1175;113840;-78
2021/12/04 19:50:45;;;;;;;92.40;45.50;;;;;;;2.23;100.00;99224.05;714736;1176;114222;-75
2021/12/04 20:06:18;;;;;;;;;;;;;;;2.43;100.00;99225.23;716648;1202;114346;-76
2021/12/04 20:21:14;;;;;;;64.43;26.73;;;;;;;2.51;100.00;99227.28;715147;1199;101128;-77
2021/12/04 21:07:03;;;;;;;187.50;54.28;;;;;;;2.52;100.00;99225.50;714755;1180;113978;-77
2021/12/04 21:52:51;;;;;;;96.30;36.77;;;;;;;2.24;100.00;99250.75;714102;1200;114486;-76
